createdAt,value
2019-04-06T00:01:14.079Z,15.93
2019-04-06T00:04:01.432Z,15.00
2019-04-06T00:06:49.199Z,14.07
2019-04-06T00:09:36.931Z,16.17
2019-04-06T00:12:24.508Z,15.23
2019-04-06T00:15:12.117Z,15.00
2019-04-06T00:17:59.466Z,16.57
2019-04-06T00:20:46.701Z,17.90
2019-04-06T00:23:34.496Z,15.10
2019-04-06T00:26:22.393Z,17.27
2019-04-06T00:29:09.883Z,15.17
2019-04-06T00:32:02.163Z,16.27
2019-04-06T00:34:49.817Z,18.47
2019-04-06T00:37:37.204Z,18.60
2019-04-06T00:40:24.958Z,19.37
2019-04-06T00:43:12.910Z,17.40
2019-04-06T00:45:59.989Z,19.30
2019-04-06T00:48:47.521Z,17.40
2019-04-06T00:51:34.944Z,21.53
2019-04-06T00:54:22.769Z,21.50
2019-04-06T00:57:10.242Z,20.80
2019-04-06T00:59:57.797Z,20.63
2019-04-06T01:02:45.369Z,24.07
2019-04-06T01:05:33.018Z,21.40
2019-04-06T01:08:20.606Z,19.03
2019-04-06T01:11:07.918Z,21.33
2019-04-06T01:13:55.604Z,19.27
2019-04-06T01:16:43.119Z,18.37
2019-04-06T01:19:31.047Z,19.80
2019-04-06T01:22:18.867Z,17.33
2019-04-06T01:25:06.727Z,16.43
2019-04-06T01:27:54.456Z,19.20
2019-04-06T01:30:42.271Z,16.27
2019-04-06T01:33:29.918Z,19.90
2019-04-06T01:36:17.311Z,17.73
2019-04-06T01:39:06.534Z,17.83
2019-04-06T01:41:53.752Z,17.83
2019-04-06T01:44:41.209Z,14.87
2019-04-06T01:47:28.846Z,18.70
2019-04-06T01:50:15.940Z,18.93
2019-04-06T01:53:03.499Z,18.57
2019-04-06T01:55:51.464Z,18.50
2019-04-06T01:58:38.782Z,22.10
2019-04-06T02:01:30.523Z,22.23
2019-04-06T02:04:18.286Z,21.00
2019-04-06T02:07:06.119Z,21.23
2019-04-06T02:09:53.938Z,22.50
2019-04-06T02:12:41.346Z,23.70
2019-04-06T02:15:29.139Z,25.47
2019-04-06T02:18:17.346Z,21.60
2019-04-06T02:21:04.772Z,20.47
2019-04-06T02:23:52.173Z,20.40
2019-04-06T02:26:39.606Z,20.70
2019-04-06T02:29:27.068Z,19.73
2019-04-06T02:32:39.748Z,22.07
2019-04-06T02:35:37.378Z,22.63
2019-04-06T02:38:44.218Z,19.73
2019-04-06T02:42:03.060Z,21.23
2019-04-06T02:44:50.730Z,21.50
2019-04-06T02:47:38.280Z,23.10
2019-04-06T02:50:25.622Z,23.10
2019-04-06T02:53:13.411Z,23.73
2019-04-06T02:56:01.116Z,25.00
2019-04-06T02:58:48.610Z,22.63
2019-04-06T03:01:36.103Z,22.03
2019-04-06T03:04:23.525Z,25.40
2019-04-06T03:07:11.344Z,22.60
2019-04-06T03:09:58.874Z,20.93
2019-04-06T03:12:46.762Z,21.67
2019-04-06T03:15:34.114Z,23.77
2019-04-06T03:18:21.437Z,28.43
2019-04-06T03:21:08.830Z,22.03
2019-04-06T03:23:56.455Z,21.23
2019-04-06T03:26:44.038Z,20.80
2019-04-06T03:29:31.857Z,24.53
2019-04-06T03:32:19.324Z,20.30
2019-04-06T03:35:07.691Z,21.50
2019-04-06T03:37:55.433Z,21.50
2019-04-06T03:40:42.644Z,24.47
2019-04-06T03:43:30.460Z,25.33
2019-04-06T03:46:17.811Z,24.90
2019-04-06T03:49:05.340Z,25.97
2019-04-06T03:51:52.833Z,25.03
2019-04-06T03:54:40.245Z,26.13
2019-04-06T03:57:27.616Z,30.07
2019-04-06T04:00:16.329Z,29.70
2019-04-06T04:03:03.692Z,24.10
2019-04-06T04:05:51.186Z,28.40
2019-04-06T04:08:38.636Z,28.10
2019-04-06T04:11:26.098Z,27.63
2019-04-06T04:14:13.587Z,27.77
2019-04-06T04:17:00.931Z,28.97
2019-04-06T04:19:48.539Z,23.90
2019-04-06T04:22:35.881Z,24.43
2019-04-06T04:25:23.363Z,26.90
2019-04-06T04:28:10.999Z,24.63
2019-04-06T04:30:58.565Z,24.40
2019-04-06T04:33:45.946Z,24.20
2019-04-06T04:36:33.631Z,24.87
2019-04-06T04:39:21.157Z,22.83
2019-04-06T04:42:08.844Z,23.23
2019-04-06T04:44:56.643Z,23.43
2019-04-06T04:47:44.296Z,22.67
2019-04-06T04:50:31.787Z,24.57
2019-04-06T04:53:19.187Z,25.50
2019-04-06T04:56:07.154Z,24.43
2019-04-06T04:58:54.690Z,23.93
2019-04-06T05:01:42.225Z,28.97
2019-04-06T05:04:30.018Z,25.90
2019-04-06T05:07:17.640Z,26.20
2019-04-06T05:10:05.863Z,25.80
2019-04-06T05:12:53.640Z,29.17
2019-04-06T05:16:09.744Z,27.13
2019-04-06T05:18:57.407Z,25.60
2019-04-06T05:21:45.133Z,22.87
2019-04-06T05:24:32.740Z,25.70
2019-04-06T05:27:20.732Z,20.70
2019-04-06T05:30:09.410Z,22.73
2019-04-06T05:32:56.902Z,21.10
2019-04-06T05:35:44.603Z,24.13
2019-04-06T05:38:32.043Z,19.37
2019-04-06T05:41:19.622Z,17.67
2019-04-06T05:44:07.161Z,16.83
2019-04-06T05:46:54.598Z,17.00
2019-04-06T05:49:42.296Z,16.33
2019-04-06T05:52:29.638Z,14.93
2019-04-06T05:55:17.310Z,13.10
2019-04-06T05:58:09.673Z,13.63
2019-04-06T06:00:54.269Z,16.20
2019-04-06T06:03:41.778Z,13.43
2019-04-06T06:06:29.560Z,13.70
2019-04-06T06:09:17.298Z,14.77
2019-04-06T06:12:05.032Z,14.67
2019-04-06T06:14:52.522Z,15.67
2019-04-06T06:17:40.169Z,15.40
2019-04-06T06:20:27.199Z,17.53
2019-04-06T06:23:14.557Z,17.93
2019-04-06T06:26:02.548Z,16.53
2019-04-06T06:28:50.449Z,19.20
2019-04-06T06:31:38.016Z,19.70
2019-04-06T06:34:25.158Z,19.27
2019-04-06T06:37:13.141Z,15.77
2019-04-06T06:40:00.669Z,14.80
2019-04-06T06:42:48.634Z,18.57
2019-04-06T06:45:35.882Z,18.83
2019-04-06T06:48:23.485Z,20.27
2019-04-06T06:51:10.958Z,18.33
2019-04-06T06:53:58.738Z,18.90
2019-04-06T06:56:46.249Z,17.20
2019-04-06T06:59:33.995Z,18.70
2019-04-06T07:02:21.331Z,17.30
2019-04-06T07:05:08.898Z,19.03
2019-04-06T07:07:56.525Z,19.13
2019-04-06T07:10:43.890Z,19.33
2019-04-06T07:13:35.073Z,21.10
2019-04-06T07:16:22.828Z,18.83
2019-04-06T07:19:10.206Z,20.33
2019-04-06T07:21:58.303Z,20.50
2019-04-06T07:24:45.982Z,18.03
2019-04-06T07:27:33.604Z,19.03
2019-04-06T07:30:20.947Z,17.90
2019-04-06T07:33:08.128Z,17.70
2019-04-06T07:35:55.256Z,18.10
2019-04-06T07:38:43.231Z,17.77
2019-04-06T07:41:30.798Z,19.63
2019-04-06T07:44:18.371Z,20.33
2019-04-06T07:47:05.955Z,20.03
2019-04-06T07:49:53.591Z,21.37
2019-04-06T07:52:41.141Z,19.20
2019-04-06T07:55:28.926Z,20.57
2019-04-06T07:58:16.702Z,18.57
2019-04-06T08:01:04.214Z,17.83
2019-04-06T08:03:51.645Z,20.13
2019-04-06T08:06:38.907Z,16.23
2019-04-06T08:09:26.434Z,19.17
2019-04-06T08:12:14.282Z,18.40
2019-04-06T08:15:02.206Z,19.10
2019-04-06T08:17:49.755Z,12.10
2019-04-06T08:20:37.322Z,12.10
2019-04-06T08:23:25.272Z,10.33
2019-04-06T08:26:13.206Z,13.67
2019-04-06T08:29:02.725Z,14.00
2019-04-06T08:31:50.398Z,13.47
2019-04-06T08:34:38.105Z,14.10
2019-04-06T08:37:26.010Z,14.53
2019-04-06T08:40:13.375Z,13.30
2019-04-06T08:43:00.887Z,15.50
2019-04-06T08:45:48.311Z,16.13
2019-04-06T08:48:35.709Z,17.57
2019-04-06T08:51:23.032Z,17.33
2019-04-06T08:54:10.816Z,18.30
2019-04-06T08:56:57.961Z,19.10
2019-04-06T08:59:45.920Z,18.73
2019-04-06T09:02:33.562Z,22.10
2019-04-06T09:05:21.186Z,21.60
2019-04-06T09:08:08.171Z,21.47
2019-04-06T09:10:55.603Z,21.40
2019-04-06T09:13:42.851Z,18.77
2019-04-06T09:16:30.017Z,20.37
2019-04-06T09:19:17.310Z,20.00
2019-04-06T09:22:05.062Z,19.43
2019-04-06T09:24:53.017Z,17.37
2019-04-06T09:27:40.460Z,17.90
2019-04-06T09:30:27.968Z,18.30
2019-04-06T09:33:15.350Z,16.33
2019-04-06T09:36:03.004Z,19.77
2019-04-06T09:38:50.840Z,22.30
2019-04-06T09:41:38.258Z,18.90
2019-04-06T09:44:36.522Z,19.17
2019-04-06T09:47:32.238Z,20.67
2019-04-06T09:50:38.768Z,21.50
2019-04-06T09:54:05.215Z,20.50
2019-04-06T09:57:15.164Z,22.10
2019-04-06T10:00:11.711Z,20.03
2019-04-06T10:03:18.219Z,22.37
2019-04-06T10:06:15.659Z,19.43
2019-04-06T10:09:21.031Z,19.43
2019-04-06T10:12:36.975Z,22.20
2019-04-06T10:15:42.512Z,22.03
2019-04-06T10:18:49.249Z,17.03
2019-04-06T10:21:54.594Z,15.00
2019-04-06T10:24:59.866Z,17.20
2019-04-06T10:28:05.186Z,17.53
2019-04-06T10:31:12.859Z,17.20
2019-04-06T10:34:19.719Z,15.47
2019-04-06T10:37:23.131Z,15.63
2019-04-06T10:40:29.524Z,14.70
2019-04-06T10:43:21.916Z,18.37
2019-04-06T10:46:38.591Z,18.83
2019-04-06T10:49:43.647Z,17.77
2019-04-06T10:53:08.405Z,16.37
2019-04-06T10:56:08.494Z,17.63
2019-04-06T10:59:12.243Z,17.00
2019-04-06T11:02:17.648Z,16.17
2019-04-06T11:05:11.427Z,15.27
2019-04-06T11:08:27.049Z,16.30
2019-04-06T11:11:51.852Z,14.73
2019-04-06T11:14:56.246Z,13.43
2019-04-06T11:17:53.439Z,14.87
2019-04-06T11:20:48.604Z,14.87
2019-04-06T11:23:53.736Z,13.27
2019-04-06T11:26:53.565Z,16.37
2019-04-06T11:29:58.519Z,16.03
2019-04-06T11:33:03.642Z,15.10
2019-04-06T11:36:04.995Z,15.20
2019-04-06T11:39:21.135Z,14.03
2019-04-06T11:42:37.324Z,16.10
2019-04-06T11:45:49.626Z,16.00
2019-04-06T11:49:02.833Z,13.83
2019-04-06T11:52:14.001Z,15.97
2019-04-06T11:55:09.088Z,17.70
2019-04-06T11:58:08.155Z,17.17
2019-04-06T12:01:17.603Z,16.23
2019-04-06T12:04:30.398Z,16.57
2019-04-06T12:07:35.720Z,16.23
2019-04-06T12:10:36.507Z,17.73
2019-04-06T12:13:33.452Z,14.83
2019-04-06T12:16:39.187Z,14.87
2019-04-06T12:19:55.157Z,16.00
2019-04-06T12:22:52.296Z,16.17
2019-04-06T12:26:14.351Z,17.50
2019-04-06T12:29:16.137Z,16.37
2019-04-06T12:32:15.628Z,16.73
2019-04-06T12:35:20.509Z,14.40
2019-04-06T12:38:21.201Z,17.50
2019-04-06T12:41:23.823Z,19.13
2019-04-06T12:44:29.693Z,17.40
2019-04-06T12:47:35.582Z,18.27
2019-04-06T12:50:47.205Z,16.53
2019-04-06T12:53:53.843Z,15.90
2019-04-06T12:57:00.226Z,16.53
2019-04-06T13:00:03.368Z,19.57
2019-04-06T13:03:11.006Z,16.57
2019-04-06T13:06:16.796Z,18.63
2019-04-06T13:09:34.042Z,16.10
2019-04-06T13:12:49.444Z,18.17
2019-04-06T13:15:56.281Z,21.27
2019-04-06T13:19:06.641Z,19.37
2019-04-06T13:22:10.228Z,20.30
2019-04-06T13:25:05.392Z,19.13
2019-04-06T13:28:18.298Z,18.03
2019-04-06T13:31:33.946Z,18.40
2019-04-06T13:34:31.229Z,18.23
2019-04-06T13:37:33.149Z,20.57
2019-04-06T13:40:42.748Z,19.80
2019-04-06T13:43:52.327Z,19.20
2019-04-06T13:46:48.139Z,19.37
2019-04-06T13:49:43.308Z,21.57
2019-04-06T13:52:46.632Z,21.30
2019-04-06T13:55:51.226Z,23.10
2019-04-06T13:58:50.957Z,19.53
2019-04-06T14:01:56.397Z,21.77
2019-04-06T14:05:01.371Z,19.63
2019-04-06T14:08:17.051Z,20.40
2019-04-06T14:11:23.557Z,21.87
2019-04-06T14:14:45.881Z,22.60
2019-04-06T14:17:43.788Z,19.67
2019-04-06T14:20:54.387Z,19.73
2019-04-06T14:24:01.050Z,17.97
2019-04-06T14:27:06.472Z,20.97
2019-04-06T14:30:11.270Z,21.37
2019-04-06T14:33:06.900Z,20.20
2019-04-06T14:36:11.890Z,17.60
2019-04-06T14:39:11.824Z,18.10
2019-04-06T14:42:30.481Z,16.93
2019-04-06T14:45:44.344Z,15.73
2019-04-06T14:48:40.614Z,18.27
2019-04-06T14:51:40.525Z,18.73
2019-04-06T14:54:47.024Z,16.23
2019-04-06T14:57:42.325Z,16.33
2019-04-06T15:00:39.768Z,17.77
2019-04-06T15:03:39.162Z,18.63
2019-04-06T15:06:41.575Z,16.83
2019-04-06T15:09:37.245Z,16.10
2019-04-06T15:12:31.517Z,18.27
2019-04-06T15:15:36.872Z,18.83
2019-04-06T15:18:49.529Z,16.67
2019-04-06T15:22:03.459Z,15.40
2019-04-06T15:25:05.919Z,13.93
2019-04-06T15:28:11.302Z,14.13
2019-04-06T15:31:16.338Z,17.93
2019-04-06T15:34:26.244Z,17.67
2019-04-06T15:37:32.700Z,12.77
2019-04-06T15:40:36.162Z,15.30
2019-04-06T15:43:42.586Z,15.63
2019-04-06T15:46:52.133Z,14.57
2019-04-06T15:50:01.455Z,13.90
2019-04-06T15:52:54.740Z,14.10
2019-04-06T15:56:03.721Z,14.20
2019-04-06T15:58:59.743Z,14.90
2019-04-06T16:02:06.369Z,13.87
2019-04-06T16:05:16.164Z,14.23
2019-04-06T16:08:19.567Z,15.23
2019-04-06T16:11:25.376Z,16.43
2019-04-06T16:14:44.797Z,14.17
2019-04-06T16:17:39.196Z,16.23
2019-04-06T16:20:59.199Z,13.60
2019-04-06T16:24:02.158Z,16.03
2019-04-06T16:26:53.871Z,14.53
2019-04-06T16:29:47.477Z,14.90
2019-04-06T16:32:50.191Z,16.50
2019-04-06T16:35:49.046Z,13.40
2019-04-06T16:38:54.350Z,13.30
2019-04-06T16:41:57.812Z,14.43
2019-04-06T16:45:23.031Z,15.53
2019-04-06T16:48:44.509Z,15.47
2019-04-06T16:51:44.896Z,16.47
2019-04-06T16:54:41.656Z,17.20
2019-04-06T16:57:46.966Z,14.90
2019-04-06T17:01:06.520Z,14.33
2019-04-06T17:04:15.939Z,15.70
2019-04-06T17:07:26.319Z,16.60
2019-04-06T17:10:20.741Z,15.47
2019-04-06T17:13:27.077Z,17.53
2019-04-06T17:16:33.142Z,16.67
2019-04-06T17:19:34.817Z,14.27
2019-04-06T17:22:43.037Z,15.50
2019-04-06T17:25:49.927Z,15.37
2019-04-06T17:28:54.948Z,14.40
2019-04-06T17:32:01.347Z,14.70
2019-04-06T17:35:09.312Z,16.07
2019-04-06T17:38:02.534Z,17.13
2019-04-06T17:41:07.661Z,14.33
2019-04-06T17:44:07.337Z,18.70
2019-04-06T17:47:18.133Z,15.57
2019-04-06T17:50:23.482Z,14.50
2019-04-06T17:53:36.214Z,15.97
2019-04-06T17:56:41.513Z,17.43
2019-04-06T17:59:47.047Z,14.50
2019-04-06T18:02:51.110Z,15.83
2019-04-06T18:05:56.974Z,17.83
2019-04-06T18:09:08.904Z,16.37
2019-04-06T18:12:15.119Z,16.70
2019-04-06T18:15:03.481Z,15.03
2019-04-06T18:17:51.000Z,16.60
2019-04-06T18:20:38.387Z,18.90
2019-04-06T18:23:25.837Z,16.57
2019-04-06T18:26:13.204Z,17.10
2019-04-06T18:29:00.919Z,16.43
2019-04-06T18:31:58.140Z,18.87
2019-04-06T18:34:45.836Z,17.67
2019-04-06T18:37:44.784Z,18.87
2019-04-06T18:40:32.255Z,17.37
2019-04-06T18:43:20.731Z,18.53
2019-04-06T18:46:08.124Z,19.20
2019-04-06T18:48:55.701Z,19.17
2019-04-06T18:51:43.400Z,21.73
2019-04-06T18:54:31.266Z,19.40
2019-04-06T18:57:18.860Z,19.50
2019-04-06T19:00:11.580Z,19.63
2019-04-06T19:03:11.071Z,21.03
2019-04-06T19:05:49.826Z,20.30
2019-04-06T19:08:36.581Z,18.40
2019-04-06T19:11:24.235Z,18.53
2019-04-06T19:14:12.378Z,17.73
2019-04-06T19:16:59.740Z,20.50
2019-04-06T19:19:47.167Z,19.60
2019-04-06T19:22:34.341Z,19.90
2019-04-06T19:25:22.128Z,18.90
2019-04-06T19:28:09.734Z,19.03
2019-04-06T19:30:57.634Z,18.33
2019-04-06T19:33:45.634Z,18.17
2019-04-06T19:36:33.460Z,19.10
2019-04-06T19:39:20.805Z,21.87
2019-04-06T19:42:08.469Z,17.93
2019-04-06T19:44:55.909Z,19.47
2019-04-06T19:47:43.647Z,21.13
2019-04-06T19:50:30.875Z,18.90
2019-04-06T19:53:18.418Z,20.10
2019-04-06T19:56:05.895Z,21.43
2019-04-06T19:58:54.020Z,18.83
2019-04-06T20:02:41.865Z,16.67
2019-04-06T20:05:29.572Z,18.23
2019-04-06T20:08:17.463Z,17.17
2019-04-06T20:11:05.498Z,21.00
2019-04-06T20:13:53.852Z,19.50
2019-04-06T20:16:41.955Z,20.97
2019-04-06T20:19:29.552Z,20.43
2019-04-06T20:22:18.135Z,21.13
2019-04-06T20:25:06.295Z,20.07
2019-04-06T20:27:53.944Z,18.10
2019-04-06T20:30:42.052Z,21.37
2019-04-06T20:33:29.542Z,20.60
2019-04-06T20:36:17.075Z,20.57
2019-04-06T20:39:25.837Z,19.20
2019-04-06T20:42:13.468Z,21.30
2019-04-06T20:45:00.937Z,20.90
2019-04-06T20:47:48.521Z,21.43
2019-04-06T20:50:36.417Z,20.47
2019-04-06T20:53:24.138Z,18.90
2019-04-06T20:56:11.838Z,19.30
2019-04-06T20:58:59.903Z,20.07
2019-04-06T21:01:47.155Z,20.33
2019-04-06T21:04:37.330Z,18.87
2019-04-06T21:07:25.056Z,21.77
2019-04-06T21:10:13.801Z,23.50
2019-04-06T21:13:01.394Z,20.80
2019-04-06T21:15:48.930Z,22.50
2019-04-06T21:18:36.714Z,20.20
2019-04-06T21:21:24.841Z,23.73
2019-04-06T21:24:12.549Z,21.43
2019-04-06T21:27:00.120Z,21.33
2019-04-06T21:29:47.783Z,20.33
2019-04-06T21:32:36.091Z,20.13
2019-04-06T21:35:23.577Z,18.30
2019-04-06T21:38:14.318Z,20.60
2019-04-06T21:41:01.569Z,20.90
2019-04-06T21:43:49.509Z,19.73
2019-04-06T21:46:38.027Z,18.87
2019-04-06T21:49:25.766Z,20.83
2019-04-06T21:52:13.363Z,20.80
2019-04-06T21:55:01.018Z,19.87
2019-04-06T21:57:48.575Z,19.53
2019-04-06T22:00:52.754Z,20.83
2019-04-06T22:03:40.794Z,20.13
2019-04-06T22:06:28.325Z,21.33
2019-04-06T22:09:16.380Z,23.17
2019-04-06T22:12:04.881Z,21.57
2019-04-06T22:14:52.942Z,23.00
2019-04-06T22:17:41.011Z,21.23
2019-04-06T22:20:28.946Z,19.90
2019-04-06T22:23:16.760Z,18.97
2019-04-06T22:26:04.582Z,21.40
2019-04-06T22:28:52.302Z,19.50
2019-04-06T22:31:39.835Z,22.47
2019-04-06T22:34:36.973Z,21.33
2019-04-06T22:37:16.622Z,20.90
2019-04-06T22:42:34.251Z,19.87
2019-04-06T22:45:23.264Z,20.07
2019-04-06T22:48:10.830Z,22.27
2019-04-06T22:50:58.711Z,21.70
2019-04-06T22:53:46.467Z,22.83
2019-04-06T22:56:33.914Z,19.57
2019-04-06T22:59:21.196Z,20.50
2019-04-06T23:02:09.332Z,19.50
2019-04-06T23:05:06.220Z,18.40
2019-04-06T23:07:53.658Z,22.47
2019-04-06T23:10:41.178Z,21.67
2019-04-06T23:13:29.222Z,20.63
2019-04-06T23:16:16.992Z,19.63
2019-04-06T23:19:05.134Z,22.87
2019-04-06T23:21:53.159Z,21.40
2019-04-06T23:24:40.949Z,22.00
2019-04-06T23:27:28.273Z,19.70
2019-04-06T23:30:16.053Z,21.00
2019-04-06T23:33:03.964Z,20.97
2019-04-06T23:35:51.746Z,21.30
2019-04-06T23:38:39.521Z,21.67
2019-04-06T23:41:26.775Z,20.77
2019-04-06T23:44:14.649Z,21.63
2019-04-06T23:47:03.235Z,23.23
2019-04-06T23:49:51.755Z,22.40
2019-04-06T23:52:39.086Z,24.17
2019-04-06T23:55:27.148Z,22.47
2019-04-06T23:58:14.473Z,23.50
